sensor_id;sensor_type;location;lat;lon;timestamp;P1;durP1;ratioP1;P2;durP2;ratioP2
29246;SDS011;16272;48.188;9.964;2023-11-21T00:02:20;6.43;;;1.07;;
29246;SDS011;16272;48.188;9.964;2023-11-21T00:04:47;6.32;;;1.00;;
29246;SDS011;16272;48.188;9.964;2023-11-21T00:07:13;6.25;;;1.20;;
29246;SDS011;16272;48.188;9.964;2023-11-21T00:09:39;6.15;;;1.27;;
29246;SDS011;16272;48.188;9.964;2023-11-21T00:12:06;4.67;;;0.93;;
29246;SDS011;16272;48.188;9.964;2023-11-21T00:14:34;5.63;;;1.10;;
29246;SDS011;16272;48.188;9.964;2023-11-21T00:17:06;7.13;;;1.08;;
29246;SDS011;16272;48.188;9.964;2023-11-21T00:19:32;7.27;;;1.00;;
29246;SDS011;16272;48.188;9.964;2023-11-21T00:21:58;6.30;;;1.27;;
29246;SDS011;16272;48.188;9.964;2023-11-21T00:24:24;4.77;;;0.70;;
29246;SDS011;16272;48.188;9.964;2023-11-21T00:26:51;5.80;;;1.00;;
29246;SDS011;16272;48.188;9.964;2023-11-21T00:29:16;7.43;;;1.20;;
29246;SDS011;16272;48.188;9.964;2023-11-21T00:31:43;7.07;;;1.20;;
29246;SDS011;16272;48.188;9.964;2023-11-21T00:34:11;7.68;;;1.27;;
29246;SDS011;16272;48.188;9.964;2023-11-21T00:36:37;7.05;;;1.20;;
29246;SDS011;16272;48.188;9.964;2023-11-21T00:39:02;9.13;;;1.13;;
29246;SDS011;16272;48.188;9.964;2023-11-21T00:41:28;7.70;;;1.20;;
29246;SDS011;16272;48.188;9.964;2023-11-21T00:43:54;9.17;;;1.70;;
29246;SDS011;16272;48.188;9.964;2023-11-21T00:46:20;7.15;;;1.30;;
29246;SDS011;16272;48.188;9.964;2023-11-21T00:48:46;7.95;;;1.30;;
29246;SDS011;16272;48.188;9.964;2023-11-21T00:51:11;6.03;;;1.23;;
29246;SDS011;16272;48.188;9.964;2023-11-21T00:53:36;6.93;;;1.30;;
29246;SDS011;16272;48.188;9.964;2023-11-21T00:56:01;7.53;;;1.10;;
29246;SDS011;16272;48.188;9.964;2023-11-21T00:58:27;7.10;;;1.02;;
29246;SDS011;16272;48.188;9.964;2023-11-21T01:00:53;7.03;;;1.30;;
29246;SDS011;16272;48.188;9.964;2023-11-21T01:03:18;7.67;;;1.20;;
29246;SDS011;16272;48.188;9.964;2023-11-21T01:05:43;5.20;;;1.10;;
29246;SDS011;16272;48.188;9.964;2023-11-21T01:08:09;4.72;;;1.00;;
29246;SDS011;16272;48.188;9.964;2023-11-21T01:10:35;6.50;;;1.00;;
29246;SDS011;16272;48.188;9.964;2023-11-21T01:13:00;7.45;;;1.20;;
29246;SDS011;16272;48.188;9.964;2023-11-21T01:15:26;8.17;;;1.20;;
29246;SDS011;16272;48.188;9.964;2023-11-21T01:17:52;5.20;;;1.20;;
29246;SDS011;16272;48.188;9.964;2023-11-21T01:20:17;7.10;;;0.95;;
29246;SDS011;16272;48.188;9.964;2023-11-21T01:22:43;7.63;;;0.90;;
29246;SDS011;16272;48.188;9.964;2023-11-21T01:25:08;7.20;;;0.90;;
29246;SDS011;16272;48.188;9.964;2023-11-21T01:27:34;7.20;;;1.10;;
29246;SDS011;16272;48.188;9.964;2023-11-21T01:30:00;6.17;;;1.77;;
29246;SDS011;16272;48.188;9.964;2023-11-21T01:32:27;4.25;;;0.80;;
29246;SDS011;16272;48.188;9.964;2023-11-21T01:34:53;7.15;;;1.25;;
29246;SDS011;16272;48.188;9.964;2023-11-21T01:37:20;5.00;;;1.00;;
29246;SDS011;16272;48.188;9.964;2023-11-21T01:39:46;9.07;;;1.15;;
29246;SDS011;16272;48.188;9.964;2023-11-21T01:42:12;6.20;;;1.10;;
29246;SDS011;16272;48.188;9.964;2023-11-21T01:44:38;5.40;;;1.10;;
29246;SDS011;16272;48.188;9.964;2023-11-21T01:47:04;5.47;;;0.80;;
29246;SDS011;16272;48.188;9.964;2023-11-21T01:49:32;7.75;;;1.30;;
29246;SDS011;16272;48.188;9.964;2023-11-21T01:51:58;6.00;;;1.10;;
29246;SDS011;16272;48.188;9.964;2023-11-21T01:54:24;7.82;;;1.58;;
29246;SDS011;16272;48.188;9.964;2023-11-21T01:56:50;5.73;;;0.80;;
29246;SDS011;16272;48.188;9.964;2023-11-21T01:59:17;5.88;;;1.15;;
29246;SDS011;16272;48.188;9.964;2023-11-21T02:01:45;5.72;;;1.10;;
29246;SDS011;16272;48.188;9.964;2023-11-21T02:04:11;7.43;;;1.87;;
29246;SDS011;16272;48.188;9.964;2023-11-21T02:06:37;5.40;;;1.65;;
29246;SDS011;16272;48.188;9.964;2023-11-21T02:09:03;6.15;;;1.50;;
29246;SDS011;16272;48.188;9.964;2023-11-21T02:11:29;6.20;;;0.90;;
29246;SDS011;16272;48.188;9.964;2023-11-21T02:13:55;6.88;;;0.85;;
29246;SDS011;16272;48.188;9.964;2023-11-21T02:16:20;6.23;;;1.20;;
29246;SDS011;16272;48.188;9.964;2023-11-21T02:18:49;6.70;;;0.93;;
29246;SDS011;16272;48.188;9.964;2023-11-21T02:21:15;4.75;;;0.90;;
29246;SDS011;16272;48.188;9.964;2023-11-21T02:23:40;6.40;;;1.00;;
29246;SDS011;16272;48.188;9.964;2023-11-21T02:26:09;2.55;;;0.70;;
29246;SDS011;16272;48.188;9.964;2023-11-21T02:28:35;4.57;;;0.90;;
29246;SDS011;16272;48.188;9.964;2023-11-21T02:31:01;4.50;;;0.70;;
29246;SDS011;16272;48.188;9.964;2023-11-21T02:33:27;7.13;;;0.80;;
29246;SDS011;16272;48.188;9.964;2023-11-21T02:35:53;7.47;;;1.13;;
29246;SDS011;16272;48.188;9.964;2023-11-21T02:38:20;5.72;;;0.82;;
29246;SDS011;16272;48.188;9.964;2023-11-21T02:40:46;5.10;;;0.90;;
29246;SDS011;16272;48.188;9.964;2023-11-21T02:43:11;5.67;;;1.10;;
29246;SDS011;16272;48.188;9.964;2023-11-21T02:45:36;3.80;;;1.10;;
29246;SDS011;16272;48.188;9.964;2023-11-21T02:48:02;3.37;;;0.70;;
29246;SDS011;16272;48.188;9.964;2023-11-21T02:50:27;4.65;;;0.73;;
29246;SDS011;16272;48.188;9.964;2023-11-21T02:52:53;4.33;;;0.90;;
29246;SDS011;16272;48.188;9.964;2023-11-21T02:55:18;5.97;;;0.80;;
29246;SDS011;16272;48.188;9.964;2023-11-21T02:57:44;2.70;;;0.60;;
29246;SDS011;16272;48.188;9.964;2023-11-21T03:00:09;5.10;;;0.70;;
29246;SDS011;16272;48.188;9.964;2023-11-21T03:02:35;3.67;;;0.70;;
29246;SDS011;16272;48.188;9.964;2023-11-21T03:05:04;4.15;;;0.70;;
29246;SDS011;16272;48.188;9.964;2023-11-21T03:07:30;6.80;;;0.98;;
29246;SDS011;16272;48.188;9.964;2023-11-21T03:09:55;3.83;;;0.90;;
29246;SDS011;16272;48.188;9.964;2023-11-21T03:12:20;5.33;;;0.90;;
29246;SDS011;16272;48.188;9.964;2023-11-21T03:14:46;4.60;;;1.10;;
29246;SDS011;16272;48.188;9.964;2023-11-21T03:17:11;4.57;;;0.67;;
29246;SDS011;16272;48.188;9.964;2023-11-21T03:19:36;5.00;;;0.70;;
29246;SDS011;16272;48.188;9.964;2023-11-21T03:22:02;4.30;;;0.70;;
29246;SDS011;16272;48.188;9.964;2023-11-21T03:24:29;3.55;;;0.60;;
29246;SDS011;16272;48.188;9.964;2023-11-21T03:26:54;4.37;;;0.80;;
29246;SDS011;16272;48.188;9.964;2023-11-21T03:29:19;4.50;;;0.73;;
29246;SDS011;16272;48.188;9.964;2023-11-21T03:31:45;3.40;;;0.60;;
29246;SDS011;16272;48.188;9.964;2023-11-21T03:34:14;3.80;;;0.73;;
29246;SDS011;16272;48.188;9.964;2023-11-21T03:36:41;5.03;;;0.70;;
29246;SDS011;16272;48.188;9.964;2023-11-21T03:39:06;3.63;;;0.60;;
29246;SDS011;16272;48.188;9.964;2023-11-21T03:41:32;6.73;;;0.90;;
29246;SDS011;16272;48.188;9.964;2023-11-21T03:43:57;5.27;;;0.73;;
29246;SDS011;16272;48.188;9.964;2023-11-21T03:46:22;4.47;;;1.10;;
29246;SDS011;16272;48.188;9.964;2023-11-21T03:48:47;5.23;;;0.90;;
29246;SDS011;16272;48.188;9.964;2023-11-21T03:51:13;5.67;;;0.80;;
29246;SDS011;16272;48.188;9.964;2023-11-21T03:53:38;3.73;;;0.70;;
29246;SDS011;16272;48.188;9.964;2023-11-21T03:56:06;4.47;;;0.70;;
29246;SDS011;16272;48.188;9.964;2023-11-21T03:58:32;3.00;;;0.60;;
29246;SDS011;16272;48.188;9.964;2023-11-21T04:00:57;5.07;;;0.65;;
29246;SDS011;16272;48.188;9.964;2023-11-21T04:03:22;6.17;;;0.90;;
29246;SDS011;16272;48.188;9.964;2023-11-21T04:05:47;5.37;;;0.90;;
29246;SDS011;16272;48.188;9.964;2023-11-21T04:08:13;5.40;;;0.90;;
29246;SDS011;16272;48.188;9.964;2023-11-21T04:10:38;4.30;;;0.70;;
29246;SDS011;16272;48.188;9.964;2023-11-21T04:13:04;3.95;;;0.70;;
29246;SDS011;16272;48.188;9.964;2023-11-21T04:15:30;3.93;;;1.07;;
29246;SDS011;16272;48.188;9.964;2023-11-21T04:17:55;5.30;;;1.10;;
29246;SDS011;16272;48.188;9.964;2023-11-21T04:20:21;6.28;;;1.25;;
29246;SDS011;16272;48.188;9.964;2023-11-21T04:22:48;5.32;;;1.00;;
29246;SDS011;16272;48.188;9.964;2023-11-21T04:25:14;7.97;;;1.00;;
29246;SDS011;16272;48.188;9.964;2023-11-21T04:27:40;5.18;;;0.90;;
29246;SDS011;16272;48.188;9.964;2023-11-21T04:30:08;7.20;;;1.00;;
29246;SDS011;16272;48.188;9.964;2023-11-21T04:32:34;4.43;;;0.90;;
29246;SDS011;16272;48.188;9.964;2023-11-21T04:35:00;4.55;;;0.80;;
29246;SDS011;16272;48.188;9.964;2023-11-21T04:37:25;4.13;;;1.00;;
29246;SDS011;16272;48.188;9.964;2023-11-21T04:39:50;5.10;;;0.80;;
29246;SDS011;16272;48.188;9.964;2023-11-21T04:42:16;3.25;;;0.70;;
29246;SDS011;16272;48.188;9.964;2023-11-21T04:44:42;3.47;;;0.90;;
29246;SDS011;16272;48.188;9.964;2023-11-21T04:47:08;3.43;;;1.10;;
29246;SDS011;16272;48.188;9.964;2023-11-21T04:49:34;4.43;;;1.10;;
29246;SDS011;16272;48.188;9.964;2023-11-21T04:51:59;4.53;;;0.87;;
29246;SDS011;16272;48.188;9.964;2023-11-21T04:54:26;3.15;;;0.73;;
29246;SDS011;16272;48.188;9.964;2023-11-21T04:56:51;3.47;;;0.90;;
29246;SDS011;16272;48.188;9.964;2023-11-21T04:59:16;5.33;;;0.77;;
29246;SDS011;16272;48.188;9.964;2023-11-21T05:01:42;4.17;;;0.90;;
29246;SDS011;16272;48.188;9.964;2023-11-21T05:04:07;5.07;;;0.87;;
29246;SDS011;16272;48.188;9.964;2023-11-21T05:06:33;6.97;;;0.90;;
29246;SDS011;16272;48.188;9.964;2023-11-21T05:08:59;4.57;;;1.00;;
29246;SDS011;16272;48.188;9.964;2023-11-21T05:11:27;4.23;;;0.80;;
29246;SDS011;16272;48.188;9.964;2023-11-21T05:13:54;5.18;;;1.58;;
29246;SDS011;16272;48.188;9.964;2023-11-21T05:16:21;3.70;;;0.65;;
29246;SDS011;16272;48.188;9.964;2023-11-21T05:18:46;5.47;;;0.80;;
29246;SDS011;16272;48.188;9.964;2023-11-21T05:21:12;3.80;;;0.67;;
29246;SDS011;16272;48.188;9.964;2023-11-21T05:23:37;4.20;;;0.90;;
29246;SDS011;16272;48.188;9.964;2023-11-21T05:26:03;3.67;;;1.00;;
29246;SDS011;16272;48.188;9.964;2023-11-21T05:28:28;3.35;;;0.98;;
29246;SDS011;16272;48.188;9.964;2023-11-21T05:30:54;4.03;;;0.67;;
29246;SDS011;16272;48.188;9.964;2023-11-21T05:33:19;3.20;;;0.80;;
29246;SDS011;16272;48.188;9.964;2023-11-21T05:35:45;6.60;;;0.90;;
29246;SDS011;16272;48.188;9.964;2023-11-21T05:38:10;2.83;;;0.50;;
29246;SDS011;16272;48.188;9.964;2023-11-21T05:40:36;4.53;;;0.80;;
29246;SDS011;16272;48.188;9.964;2023-11-21T05:43:01;3.37;;;0.70;;
29246;SDS011;16272;48.188;9.964;2023-11-21T05:45:27;4.20;;;0.70;;
29246;SDS011;16272;48.188;9.964;2023-11-21T05:47:53;3.38;;;0.80;;
29246;SDS011;16272;48.188;9.964;2023-11-21T05:50:19;2.37;;;0.57;;
29246;SDS011;16272;48.188;9.964;2023-11-21T05:52:45;4.50;;;0.70;;
29246;SDS011;16272;48.188;9.964;2023-11-21T05:55:11;3.78;;;0.65;;
29246;SDS011;16272;48.188;9.964;2023-11-21T05:57:38;3.90;;;0.70;;
29246;SDS011;16272;48.188;9.964;2023-11-21T06:00:05;4.55;;;0.80;;
29246;SDS011;16272;48.188;9.964;2023-11-21T06:02:47;3.03;;;0.60;;
29246;SDS011;16272;48.188;9.964;2023-11-21T06:05:15;3.72;;;0.65;;
29246;SDS011;16272;48.188;9.964;2023-11-21T06:07:42;4.40;;;0.77;;
29246;SDS011;16272;48.188;9.964;2023-11-21T06:10:08;4.17;;;0.70;;
29246;SDS011;16272;48.188;9.964;2023-11-21T06:12:36;3.38;;;0.60;;
29246;SDS011;16272;48.188;9.964;2023-11-21T06:15:02;3.80;;;0.73;;
29246;SDS011;16272;48.188;9.964;2023-11-21T06:17:33;4.57;;;0.77;;
29246;SDS011;16272;48.188;9.964;2023-11-21T06:20:02;6.20;;;0.80;;
29246;SDS011;16272;48.188;9.964;2023-11-21T06:22:33;3.20;;;0.60;;
29246;SDS011;16272;48.188;9.964;2023-11-21T06:24:59;6.73;;;0.80;;
29246;SDS011;16272;48.188;9.964;2023-11-21T06:27:25;5.60;;;0.60;;
29246;SDS011;16272;48.188;9.964;2023-11-21T06:29:50;4.97;;;0.70;;
29246;SDS011;16272;48.188;9.964;2023-11-21T06:32:15;4.40;;;0.83;;
29246;SDS011;16272;48.188;9.964;2023-11-21T06:34:41;4.47;;;0.83;;
29246;SDS011;16272;48.188;9.964;2023-11-21T06:37:06;5.07;;;0.80;;
29246;SDS011;16272;48.188;9.964;2023-11-21T06:39:31;4.93;;;0.80;;
29246;SDS011;16272;48.188;9.964;2023-11-21T06:41:57;3.47;;;0.80;;
29246;SDS011;16272;48.188;9.964;2023-11-21T06:44:24;4.43;;;0.82;;
29246;SDS011;16272;48.188;9.964;2023-11-21T06:46:49;5.73;;;0.90;;
29246;SDS011;16272;48.188;9.964;2023-11-21T06:49:15;4.00;;;0.60;;
29246;SDS011;16272;48.188;9.964;2023-11-21T06:51:41;5.77;;;0.90;;
29246;SDS011;16272;48.188;9.964;2023-11-21T06:54:07;6.03;;;0.95;;
29246;SDS011;16272;48.188;9.964;2023-11-21T06:56:32;4.33;;;0.87;;
29246;SDS011;16272;48.188;9.964;2023-11-21T06:58:57;4.00;;;0.80;;
29246;SDS011;16272;48.188;9.964;2023-11-21T07:01:23;5.00;;;1.10;;
29246;SDS011;16272;48.188;9.964;2023-11-21T07:03:49;5.28;;;0.90;;
29246;SDS011;16272;48.188;9.964;2023-11-21T07:06:15;3.87;;;0.77;;
29246;SDS011;16272;48.188;9.964;2023-11-21T07:08:40;4.60;;;0.90;;
29246;SDS011;16272;48.188;9.964;2023-11-21T07:11:05;4.73;;;0.80;;
29246;SDS011;16272;48.188;9.964;2023-11-21T07:13:31;6.67;;;1.40;;
29246;SDS011;16272;48.188;9.964;2023-11-21T07:15:57;6.27;;;1.00;;
29246;SDS011;16272;48.188;9.964;2023-11-21T07:18:24;3.75;;;0.70;;
29246;SDS011;16272;48.188;9.964;2023-11-21T07:20:49;4.30;;;0.80;;
29246;SDS011;16272;48.188;9.964;2023-11-21T07:23:14;7.13;;;1.20;;
29246;SDS011;16272;48.188;9.964;2023-11-21T07:25:40;2.80;;;0.80;;
29246;SDS011;16272;48.188;9.964;2023-11-21T07:28:08;5.00;;;0.70;;
29246;SDS011;16272;48.188;9.964;2023-11-21T07:30:33;4.00;;;0.77;;
29246;SDS011;16272;48.188;9.964;2023-11-21T07:32:58;4.63;;;0.90;;
29246;SDS011;16272;48.188;9.964;2023-11-21T07:35:24;4.23;;;0.70;;
29246;SDS011;16272;48.188;9.964;2023-11-21T07:37:49;3.13;;;0.70;;
29246;SDS011;16272;48.188;9.964;2023-11-21T07:40:14;4.47;;;0.90;;
29246;SDS011;16272;48.188;9.964;2023-11-21T07:42:41;3.47;;;1.00;;
29246;SDS011;16272;48.188;9.964;2023-11-21T07:45:07;3.72;;;0.88;;
29246;SDS011;16272;48.188;9.964;2023-11-21T07:47:33;3.60;;;0.70;;
29246;SDS011;16272;48.188;9.964;2023-11-21T07:49:59;3.97;;;0.73;;
29246;SDS011;16272;48.188;9.964;2023-11-21T07:52:25;4.38;;;0.90;;
29246;SDS011;16272;48.188;9.964;2023-11-21T07:54:50;5.13;;;0.87;;
29246;SDS011;16272;48.188;9.964;2023-11-21T07:57:15;4.70;;;0.97;;
29246;SDS011;16272;48.188;9.964;2023-11-21T07:59:41;5.00;;;0.70;;
29246;SDS011;16272;48.188;9.964;2023-11-21T08:02:06;4.90;;;0.97;;
29246;SDS011;16272;48.188;9.964;2023-11-21T08:04:32;3.75;;;1.05;;
29246;SDS011;16272;48.188;9.964;2023-11-21T08:06:59;3.53;;;0.80;;
29246;SDS011;16272;48.188;9.964;2023-11-21T08:09:24;5.67;;;0.97;;
29246;SDS011;16272;48.188;9.964;2023-11-21T08:11:50;4.25;;;0.90;;
29246;SDS011;16272;48.188;9.964;2023-11-21T08:14:17;4.45;;;0.80;;
29246;SDS011;16272;48.188;9.964;2023-11-21T08:16:42;4.67;;;1.00;;
29246;SDS011;16272;48.188;9.964;2023-11-21T08:19:07;4.80;;;0.80;;
29246;SDS011;16272;48.188;9.964;2023-11-21T08:21:34;5.93;;;1.00;;
29246;SDS011;16272;48.188;9.964;2023-11-21T08:23:59;3.83;;;1.00;;
29246;SDS011;16272;48.188;9.964;2023-11-21T08:26:25;6.83;;;0.90;;
29246;SDS011;16272;48.188;9.964;2023-11-21T08:28:50;6.00;;;1.10;;
29246;SDS011;16272;48.188;9.964;2023-11-21T08:31:22;6.10;;;1.10;;
29246;SDS011;16272;48.188;9.964;2023-11-21T08:33:49;4.70;;;1.25;;
29246;SDS011;16272;48.188;9.964;2023-11-21T08:36:14;5.07;;;0.80;;
29246;SDS011;16272;48.188;9.964;2023-11-21T08:38:40;7.68;;;1.30;;
29246;SDS011;16272;48.188;9.964;2023-11-21T08:41:06;4.00;;;0.90;;
29246;SDS011;16272;48.188;9.964;2023-11-21T08:43:33;7.03;;;1.30;;
29246;SDS011;16272;48.188;9.964;2023-11-21T08:46:00;7.10;;;1.05;;
29246;SDS011;16272;48.188;9.964;2023-11-21T08:48:25;6.10;;;1.30;;
29246;SDS011;16272;48.188;9.964;2023-11-21T08:50:50;7.03;;;1.13;;
29246;SDS011;16272;48.188;9.964;2023-11-21T08:53:16;5.93;;;1.30;;
29246;SDS011;16272;48.188;9.964;2023-11-21T08:55:41;8.35;;;1.38;;
29246;SDS011;16272;48.188;9.964;2023-11-21T08:58:07;9.70;;;1.30;;
29246;SDS011;16272;48.188;9.964;2023-11-21T09:00:32;5.67;;;1.20;;
29246;SDS011;16272;48.188;9.964;2023-11-21T09:02:58;4.63;;;1.13;;
29246;SDS011;16272;48.188;9.964;2023-11-21T09:05:23;5.93;;;1.43;;
29246;SDS011;16272;48.188;9.964;2023-11-21T09:07:48;5.53;;;1.20;;
29246;SDS011;16272;48.188;9.964;2023-11-21T09:10:14;5.33;;;1.10;;
29246;SDS011;16272;48.188;9.964;2023-11-21T09:12:39;6.93;;;1.30;;
29246;SDS011;16272;48.188;9.964;2023-11-21T09:15:05;5.97;;;1.10;;
29246;SDS011;16272;48.188;9.964;2023-11-21T09:17:32;5.97;;;1.30;;
29246;SDS011;16272;48.188;9.964;2023-11-21T09:19:59;6.57;;;1.20;;
29246;SDS011;16272;48.188;9.964;2023-11-21T09:22:24;6.90;;;1.60;;
29246;SDS011;16272;48.188;9.964;2023-11-21T09:24:50;7.50;;;1.50;;
29246;SDS011;16272;48.188;9.964;2023-11-21T09:27:16;5.80;;;1.30;;
29246;SDS011;16272;48.188;9.964;2023-11-21T09:29:42;6.38;;;1.33;;
29246;SDS011;16272;48.188;9.964;2023-11-21T09:32:07;6.67;;;1.50;;
29246;SDS011;16272;48.188;9.964;2023-11-21T09:34:33;5.82;;;1.20;;
29246;SDS011;16272;48.188;9.964;2023-11-21T09:37:03;5.25;;;1.05;;
29246;SDS011;16272;48.188;9.964;2023-11-21T09:39:30;5.73;;;1.50;;
29246;SDS011;16272;48.188;9.964;2023-11-21T09:42:08;5.60;;;1.30;;
29246;SDS011;16272;48.188;9.964;2023-11-21T09:47:29;5.22;;;1.30;;
29246;SDS011;16272;48.188;9.964;2023-11-21T09:49:54;5.57;;;1.30;;
29246;SDS011;16272;48.188;9.964;2023-11-21T09:52:25;5.25;;;1.25;;
29246;SDS011;16272;48.188;9.964;2023-11-21T09:54:53;5.90;;;1.33;;
29246;SDS011;16272;48.188;9.964;2023-11-21T09:57:20;5.57;;;1.00;;
29246;SDS011;16272;48.188;9.964;2023-11-21T09:59:47;5.18;;;1.20;;
29246;SDS011;16272;48.188;9.964;2023-11-21T10:02:16;5.68;;;1.00;;
29246;SDS011;16272;48.188;9.964;2023-11-21T10:04:43;5.78;;;1.00;;
29246;SDS011;16272;48.188;9.964;2023-11-21T10:07:10;5.40;;;1.13;;
29246;SDS011;16272;48.188;9.964;2023-11-21T10:09:37;6.78;;;1.20;;
29246;SDS011;16272;48.188;9.964;2023-11-21T10:12:03;5.35;;;1.40;;
29246;SDS011;16272;48.188;9.964;2023-11-21T10:14:33;4.80;;;1.20;;
29246;SDS011;16272;48.188;9.964;2023-11-21T10:17:00;4.80;;;0.93;;
29246;SDS011;16272;48.188;9.964;2023-11-21T10:19:25;5.57;;;1.40;;
29246;SDS011;16272;48.188;9.964;2023-11-21T10:21:52;3.97;;;0.95;;
29246;SDS011;16272;48.188;9.964;2023-11-21T10:24:19;5.28;;;1.10;;
29246;SDS011;16272;48.188;9.964;2023-11-21T10:26:44;6.07;;;1.17;;
29246;SDS011;16272;48.188;9.964;2023-11-21T10:29:13;5.13;;;1.13;;
29246;SDS011;16272;48.188;9.964;2023-11-21T10:31:41;4.75;;;1.00;;
29246;SDS011;16272;48.188;9.964;2023-11-21T10:34:17;5.13;;;1.20;;
29246;SDS011;16272;48.188;9.964;2023-11-21T10:36:44;4.10;;;0.80;;
29246;SDS011;16272;48.188;9.964;2023-11-21T10:39:16;4.93;;;0.87;;
29246;SDS011;16272;48.188;9.964;2023-11-21T10:41:46;4.70;;;1.00;;
29246;SDS011;16272;48.188;9.964;2023-11-21T10:44:15;5.15;;;0.90;;
29246;SDS011;16272;48.188;9.964;2023-11-21T10:46:49;5.18;;;1.13;;
29246;SDS011;16272;48.188;9.964;2023-11-21T10:49:18;5.45;;;1.27;;
29246;SDS011;16272;48.188;9.964;2023-11-21T10:51:45;5.57;;;1.52;;
29246;SDS011;16272;48.188;9.964;2023-11-21T10:54:11;5.53;;;1.10;;
29246;SDS011;16272;48.188;9.964;2023-11-21T10:56:37;5.75;;;1.40;;
29246;SDS011;16272;48.188;9.964;2023-11-21T10:59:07;4.70;;;1.20;;
29246;SDS011;16272;48.188;9.964;2023-11-21T11:01:34;5.53;;;1.30;;
29246;SDS011;16272;48.188;9.964;2023-11-21T11:04:01;4.73;;;1.13;;
29246;SDS011;16272;48.188;9.964;2023-11-21T11:06:31;5.03;;;1.05;;
29246;SDS011;16272;48.188;9.964;2023-11-21T11:08:58;4.65;;;1.10;;
29246;SDS011;16272;48.188;9.964;2023-11-21T11:11:25;4.15;;;1.10;;
29246;SDS011;16272;48.188;9.964;2023-11-21T11:13:50;5.80;;;1.40;;
29246;SDS011;16272;48.188;9.964;2023-11-21T11:16:18;4.70;;;0.80;;
29246;SDS011;16272;48.188;9.964;2023-11-21T11:18:43;6.43;;;1.02;;
29246;SDS011;16272;48.188;9.964;2023-11-21T11:21:27;4.63;;;1.00;;
29246;SDS011;16272;48.188;9.964;2023-11-21T11:35:13;5.93;;;1.20;;
29246;SDS011;16272;48.188;9.964;2023-11-21T11:37:46;5.10;;;1.08;;
29246;SDS011;16272;48.188;9.964;2023-11-21T11:40:12;4.93;;;1.27;;
29246;SDS011;16272;48.188;9.964;2023-11-21T11:42:37;4.33;;;1.00;;
29246;SDS011;16272;48.188;9.964;2023-11-21T11:45:11;5.15;;;1.15;;
29246;SDS011;16272;48.188;9.964;2023-11-21T11:47:43;4.83;;;1.10;;
29246;SDS011;16272;48.188;9.964;2023-11-21T11:50:09;9.13;;;1.30;;
29246;SDS011;16272;48.188;9.964;2023-11-21T11:52:54;5.75;;;1.50;;
29246;SDS011;16272;48.188;9.964;2023-11-21T11:55:22;4.82;;;1.23;;
29246;SDS011;16272;48.188;9.964;2023-11-21T11:57:49;4.47;;;1.20;;
29246;SDS011;16272;48.188;9.964;2023-11-21T12:00:33;5.35;;;1.38;;
29246;SDS011;16272;48.188;9.964;2023-11-21T12:03:02;5.25;;;1.30;;
29246;SDS011;16272;48.188;9.964;2023-11-21T12:05:29;5.53;;;1.00;;
29246;SDS011;16272;48.188;9.964;2023-11-21T12:07:58;5.18;;;1.30;;
29246;SDS011;16272;48.188;9.964;2023-11-21T12:10:31;5.20;;;1.23;;
29246;SDS011;16272;48.188;9.964;2023-11-21T12:13:00;4.45;;;1.10;;
29246;SDS011;16272;48.188;9.964;2023-11-21T12:15:26;4.90;;;1.20;;
29246;SDS011;16272;48.188;9.964;2023-11-21T12:17:55;5.07;;;1.00;;
29246;SDS011;16272;48.188;9.964;2023-11-21T12:20:21;5.57;;;1.33;;
29246;SDS011;16272;48.188;9.964;2023-11-21T12:22:49;5.53;;;1.27;;
29246;SDS011;16272;48.188;9.964;2023-11-21T12:25:17;4.97;;;1.30;;
29246;SDS011;16272;48.188;9.964;2023-11-21T12:27:47;5.10;;;1.05;;
29246;SDS011;16272;48.188;9.964;2023-11-21T12:30:15;5.47;;;1.48;;
29246;SDS011;16272;48.188;9.964;2023-11-21T12:32:47;5.00;;;1.10;;
29246;SDS011;16272;48.188;9.964;2023-11-21T12:35:13;4.97;;;1.20;;
29246;SDS011;16272;48.188;9.964;2023-11-21T12:37:40;4.73;;;1.30;;
29246;SDS011;16272;48.188;9.964;2023-11-21T12:40:07;5.53;;;1.35;;
29246;SDS011;16272;48.188;9.964;2023-11-21T12:42:36;5.53;;;1.60;;
29246;SDS011;16272;48.188;9.964;2023-11-21T12:45:09;6.40;;;1.73;;
29246;SDS011;16272;48.188;9.964;2023-11-21T12:47:48;4.53;;;1.08;;
29246;SDS011;16272;48.188;9.964;2023-11-21T12:50:21;4.97;;;1.20;;
29246;SDS011;16272;48.188;9.964;2023-11-21T12:52:53;4.20;;;0.90;;
29246;SDS011;16272;48.188;9.964;2023-11-21T12:55:22;4.03;;;0.73;;
29246;SDS011;16272;48.188;9.964;2023-11-21T12:57:49;4.82;;;0.82;;
29246;SDS011;16272;48.188;9.964;2023-11-21T13:00:17;4.27;;;0.80;;
29246;SDS011;16272;48.188;9.964;2023-11-21T13:02:52;5.60;;;1.30;;
29246;SDS011;16272;48.188;9.964;2023-11-21T13:07:57;4.75;;;1.10;;
29246;SDS011;16272;48.188;9.964;2023-11-21T13:10:27;5.90;;;1.10;;
29246;SDS011;16272;48.188;9.964;2023-11-21T13:12:56;5.00;;;1.20;;
29246;SDS011;16272;48.188;9.964;2023-11-21T13:15:24;3.25;;;0.95;;
29246;SDS011;16272;48.188;9.964;2023-11-21T13:17:49;9.18;;;1.92;;
29246;SDS011;16272;48.188;9.964;2023-11-21T13:20:16;10.82;;;3.00;;
29246;SDS011;16272;48.188;9.964;2023-11-21T13:22:48;7.10;;;1.60;;
29246;SDS011;16272;48.188;9.964;2023-11-21T13:25:24;4.90;;;0.90;;
29246;SDS011;16272;48.188;9.964;2023-11-21T13:27:52;3.10;;;0.70;;
29246;SDS011;16272;48.188;9.964;2023-11-21T13:30:19;2.13;;;0.50;;
29246;SDS011;16272;48.188;9.964;2023-11-21T13:32:51;2.42;;;0.50;;
29246;SDS011;16272;48.188;9.964;2023-11-21T13:35:17;2.20;;;0.60;;
29246;SDS011;16272;48.188;9.964;2023-11-21T13:37:52;3.88;;;0.70;;
29246;SDS011;16272;48.188;9.964;2023-11-21T13:40:21;2.95;;;0.60;;
29246;SDS011;16272;48.188;9.964;2023-11-21T13:42:50;2.53;;;0.60;;
29246;SDS011;16272;48.188;9.964;2023-11-21T13:45:18;2.33;;;0.50;;
29246;SDS011;16272;48.188;9.964;2023-11-21T13:47:45;2.03;;;0.50;;
29246;SDS011;16272;48.188;9.964;2023-11-21T13:50:10;2.70;;;0.60;;
29246;SDS011;16272;48.188;9.964;2023-11-21T13:52:42;2.33;;;0.60;;
29246;SDS011;16272;48.188;9.964;2023-11-21T13:55:09;3.65;;;0.90;;
29246;SDS011;16272;48.188;9.964;2023-11-21T13:57:40;3.85;;;0.80;;
29246;SDS011;16272;48.188;9.964;2023-11-21T14:00:08;3.87;;;0.90;;
29246;SDS011;16272;48.188;9.964;2023-11-21T14:02:54;3.55;;;0.88;;
29246;SDS011;16272;48.188;9.964;2023-11-21T14:05:23;2.55;;;0.60;;
29246;SDS011;16272;48.188;9.964;2023-11-21T14:07:54;2.63;;;0.70;;
29246;SDS011;16272;48.188;9.964;2023-11-21T14:10:20;1.95;;;0.50;;
29246;SDS011;16272;48.188;9.964;2023-11-21T14:12:49;3.47;;;0.50;;
29246;SDS011;16272;48.188;9.964;2023-11-21T14:15:14;2.03;;;0.60;;
29246;SDS011;16272;48.188;9.964;2023-11-21T14:17:43;2.93;;;0.50;;
29246;SDS011;16272;48.188;9.964;2023-11-21T14:20:09;2.55;;;0.50;;
29246;SDS011;16272;48.188;9.964;2023-11-21T14:22:41;2.40;;;0.43;;
29246;SDS011;16272;48.188;9.964;2023-11-21T14:25:06;1.93;;;0.50;;
29246;SDS011;16272;48.188;9.964;2023-11-21T14:27:32;2.30;;;0.70;;
29246;SDS011;16272;48.188;9.964;2023-11-21T14:29:58;2.03;;;0.40;;
29246;SDS011;16272;48.188;9.964;2023-11-21T14:32:24;2.13;;;0.50;;
29246;SDS011;16272;48.188;9.964;2023-11-21T14:34:51;2.58;;;0.50;;
29246;SDS011;16272;48.188;9.964;2023-11-21T14:37:17;3.25;;;0.65;;
29246;SDS011;16272;48.188;9.964;2023-11-21T14:39:42;2.50;;;0.40;;
29246;SDS011;16272;48.188;9.964;2023-11-21T14:42:11;3.45;;;0.60;;
29246;SDS011;16272;48.188;9.964;2023-11-21T14:44:36;3.27;;;0.70;;
29246;SDS011;16272;48.188;9.964;2023-11-21T14:47:06;2.72;;;0.50;;
29246;SDS011;16272;48.188;9.964;2023-11-21T14:49:39;4.53;;;0.60;;
29246;SDS011;16272;48.188;9.964;2023-11-21T14:52:18;1.73;;;0.43;;
29246;SDS011;16272;48.188;9.964;2023-11-21T14:55:07;2.42;;;0.52;;
29246;SDS011;16272;48.188;9.964;2023-11-21T14:57:44;2.22;;;0.50;;
29246;SDS011;16272;48.188;9.964;2023-11-21T15:00:14;2.40;;;0.57;;
29246;SDS011;16272;48.188;9.964;2023-11-21T15:03:01;2.45;;;0.60;;
29246;SDS011;16272;48.188;9.964;2023-11-21T15:05:28;2.60;;;0.50;;